sensor_id;sensor_type;location;lat;lon;timestamp;pressure;altitude;pressure_sealevel;temperature;humidity
73824;BME280;62154;54.914;73.444;2022-10-16T00:01:28;100780.84;;;10.84;73.40
73824;BME280;62154;54.914;73.444;2022-10-16T00:03:56;100772.31;;;10.85;73.44
73824;BME280;62154;54.914;73.444;2022-10-16T00:06:23;100742.00;;;10.64;73.22
73824;BME280;62154;54.914;73.444;2022-10-16T00:09:01;100740.72;;;10.59;72.98
73824;BME280;62154;54.914;73.444;2022-10-16T00:11:30;100761.44;;;10.77;72.87
73824;BME280;62154;54.914;73.444;2022-10-16T00:14:01;100734.13;;;10.60;72.68
73824;BME280;62154;54.914;73.444;2022-10-16T00:16:28;100740.94;;;10.58;72.55
73824;BME280;62154;54.914;73.444;2022-10-16T00:18:55;100736.25;;;10.52;72.66
73824;BME280;62154;54.914;73.444;2022-10-16T00:21:25;100771.66;;;10.70;72.59
73824;BME280;62154;54.914;73.444;2022-10-16T00:23:54;100767.63;;;10.66;72.50
73824;BME280;62154;54.914;73.444;2022-10-16T00:26:22;100769.53;;;10.58;72.48
73824;BME280;62154;54.914;73.444;2022-10-16T00:28:50;100725.50;;;10.22;72.61
73824;BME280;62154;54.914;73.444;2022-10-16T00:31:22;100779.94;;;10.50;72.66
73824;BME280;62154;54.914;73.444;2022-10-16T00:33:49;100740.44;;;10.27;72.63
73824;BME280;62154;54.914;73.444;2022-10-16T00:36:20;100780.34;;;10.40;72.36
73824;BME280;62154;54.914;73.444;2022-10-16T00:38:50;100679.16;;;9.82;72.19
73824;BME280;62154;54.914;73.444;2022-10-16T00:41:19;100748.53;;;10.22;72.32
73824;BME280;62154;54.914;73.444;2022-10-16T00:43:49;100747.22;;;10.18;72.34
73824;BME280;62154;54.914;73.444;2022-10-16T00:46:39;100715.59;;;9.92;72.26
73824;BME280;62154;54.914;73.444;2022-10-16T00:51:52;100718.97;;;9.81;72.54
73824;BME280;62154;54.914;73.444;2022-10-16T00:54:29;100660.03;;;9.39;72.71
73824;BME280;62154;54.914;73.444;2022-10-16T00:57:04;100753.69;;;9.84;73.07
73824;BME280;62154;54.914;73.444;2022-10-16T00:59:35;100766.25;;;9.73;73.16
73824;BME280;62154;54.914;73.444;2022-10-16T01:02:08;100768.34;;;9.71;73.22
73824;BME280;62154;54.914;73.444;2022-10-16T01:04:45;100757.84;;;9.59;73.31
73824;BME280;62154;54.914;73.444;2022-10-16T01:15:12;100768.41;;;9.42;73.53
73824;BME280;62154;54.914;73.444;2022-10-16T01:18:00;100754.94;;;9.33;73.48
73824;BME280;62154;54.914;73.444;2022-10-16T01:21:05;100762.41;;;9.39;73.50
73824;BME280;62154;54.914;73.444;2022-10-16T01:27:12;100764.09;;;9.40;73.04
73824;BME280;62154;54.914;73.444;2022-10-16T01:32:33;100765.22;;;9.45;72.88
73824;BME280;62154;54.914;73.444;2022-10-16T01:38:03;100755.66;;;9.48;72.75
73824;BME280;62154;54.914;73.444;2022-10-16T01:40:34;100674.69;;;8.97;72.51
73824;BME280;62154;54.914;73.444;2022-10-16T01:43:06;100681.81;;;9.13;72.30
73824;BME280;62154;54.914;73.444;2022-10-16T01:45:35;100716.44;;;9.38;72.27
73824;BME280;62154;54.914;73.444;2022-10-16T01:48:04;100714.28;;;9.40;72.15
73824;BME280;62154;54.914;73.444;2022-10-16T01:50:37;100738.88;;;9.56;72.05
73824;BME280;62154;54.914;73.444;2022-10-16T01:53:08;100737.19;;;9.55;72.07
73824;BME280;62154;54.914;73.444;2022-10-16T01:55:40;100682.44;;;9.16;71.73
73824;BME280;62154;54.914;73.444;2022-10-16T01:58:13;100750.84;;;9.63;71.75
73824;BME280;62154;54.914;73.444;2022-10-16T02:00:43;100733.53;;;9.55;71.66
73824;BME280;62154;54.914;73.444;2022-10-16T02:03:13;100738.44;;;9.53;71.53
73824;BME280;62154;54.914;73.444;2022-10-16T02:05:54;100752.31;;;9.59;71.49
73824;BME280;62154;54.914;73.444;2022-10-16T02:08:29;100709.38;;;9.35;71.45
73824;BME280;62154;54.914;73.444;2022-10-16T02:10:58;100672.88;;;9.18;71.46
73824;BME280;62154;54.914;73.444;2022-10-16T02:13:38;100745.94;;;9.59;71.40
73824;BME280;62154;54.914;73.444;2022-10-16T02:16:18;100737.53;;;9.45;71.61
73824;BME280;62154;54.914;73.444;2022-10-16T02:18:50;100743.78;;;9.61;71.38
73824;BME280;62154;54.914;73.444;2022-10-16T02:21:43;100726.75;;;9.57;71.21
73824;BME280;62154;54.914;73.444;2022-10-16T02:29:42;100739.75;;;9.63;71.22
73824;BME280;62154;54.914;73.444;2022-10-16T02:32:14;100738.03;;;9.62;71.10
73824;BME280;62154;54.914;73.444;2022-10-16T02:34:44;100711.38;;;9.48;70.95
73824;BME280;62154;54.914;73.444;2022-10-16T02:37:12;100705.81;;;9.41;70.76
73824;BME280;62154;54.914;73.444;2022-10-16T02:39:41;100739.75;;;9.63;71.06
73824;BME280;62154;54.914;73.444;2022-10-16T02:42:15;100695.81;;;9.47;70.96
73824;BME280;62154;54.914;73.444;2022-10-16T02:44:54;100696.69;;;9.48;70.80
73824;BME280;62154;54.914;73.444;2022-10-16T02:47:21;100707.75;;;9.48;70.75
73824;BME280;62154;54.914;73.444;2022-10-16T02:49:48;100745.81;;;9.81;70.49
73824;BME280;62154;54.914;73.444;2022-10-16T02:52:15;100699.72;;;9.59;70.23
73824;BME280;62154;54.914;73.444;2022-10-16T02:54:41;100740.31;;;9.87;70.20
73824;BME280;62154;54.914;73.444;2022-10-16T02:57:09;100743.50;;;9.91;69.68
73824;BME280;62154;54.914;73.444;2022-10-16T02:59:35;100738.81;;;9.91;69.64
73824;BME280;62154;54.914;73.444;2022-10-16T03:02:03;100697.84;;;9.67;69.65
73824;BME280;62154;54.914;73.444;2022-10-16T03:04:29;100698.25;;;9.70;69.40
73824;BME280;62154;54.914;73.444;2022-10-16T03:06:57;100733.09;;;10.00;69.49
73824;BME280;62154;54.914;73.444;2022-10-16T03:09:24;100743.16;;;10.07;69.17
73824;BME280;62154;54.914;73.444;2022-10-16T03:11:51;100734.19;;;10.12;69.07
73824;BME280;62154;54.914;73.444;2022-10-16T03:14:18;100699.66;;;9.94;68.94
73824;BME280;62154;54.914;73.444;2022-10-16T03:16:45;100689.63;;;9.93;68.93
73824;BME280;62154;54.914;73.444;2022-10-16T03:19:12;100730.59;;;10.18;68.71
73824;BME280;62154;54.914;73.444;2022-10-16T03:21:39;100733.19;;;10.26;68.79
73824;BME280;62154;54.914;73.444;2022-10-16T03:24:06;100737.50;;;10.36;68.51
73824;BME280;62154;54.914;73.444;2022-10-16T03:26:33;100726.59;;;10.34;68.27
73824;BME280;62154;54.914;73.444;2022-10-16T03:29:00;100725.56;;;10.42;67.87
73824;BME280;62154;54.914;73.444;2022-10-16T03:31:29;100644.88;;;9.96;67.86
73824;BME280;62154;54.914;73.444;2022-10-16T03:33:56;100727.94;;;10.45;67.85
73824;BME280;62154;54.914;73.444;2022-10-16T03:36:23;100722.16;;;10.47;67.56
73824;BME280;62154;54.914;73.444;2022-10-16T03:38:50;100637.22;;;10.05;67.13
73824;BME280;62154;54.914;73.444;2022-10-16T03:41:17;100719.59;;;10.58;67.11
73824;BME280;62154;54.914;73.444;2022-10-16T03:43:44;100730.28;;;10.75;67.10
73824;BME280;62154;54.914;73.444;2022-10-16T03:46:11;100723.69;;;10.76;66.53
73824;BME280;62154;54.914;73.444;2022-10-16T03:48:38;100722.63;;;10.97;66.42
73824;BME280;62154;54.914;73.444;2022-10-16T03:51:06;100678.66;;;10.87;65.58
73824;BME280;62154;54.914;73.444;2022-10-16T03:53:33;100706.34;;;11.14;65.30
73824;BME280;62154;54.914;73.444;2022-10-16T03:56:00;100712.72;;;11.41;64.50
73824;BME280;62154;54.914;73.444;2022-10-16T03:58:27;100711.81;;;11.54;63.38
73824;BME280;62154;54.914;73.444;2022-10-16T04:00:54;100701.56;;;11.55;63.18
73824;BME280;62154;54.914;73.444;2022-10-16T04:03:21;100681.91;;;11.56;63.07
73824;BME280;62154;54.914;73.444;2022-10-16T04:05:49;100682.25;;;11.73;62.46
73824;BME280;62154;54.914;73.444;2022-10-16T04:08:16;100679.44;;;11.80;61.92
73824;BME280;62154;54.914;73.444;2022-10-16T04:10:44;100733.41;;;12.11;61.13
73824;BME280;62154;54.914;73.444;2022-10-16T04:13:12;100720.50;;;12.23;61.21
73824;BME280;62154;54.914;73.444;2022-10-16T04:15:39;100715.31;;;12.34;61.13
73824;BME280;62154;54.914;73.444;2022-10-16T04:18:07;100714.97;;;12.49;60.28
73824;BME280;62154;54.914;73.444;2022-10-16T04:20:34;100700.66;;;12.52;59.91
73824;BME280;62154;54.914;73.444;2022-10-16T04:23:01;100693.31;;;12.57;58.93
73824;BME280;62154;54.914;73.444;2022-10-16T04:25:28;100714.75;;;12.82;58.43
73824;BME280;62154;54.914;73.444;2022-10-16T04:27:55;100716.38;;;12.90;58.18
73824;BME280;62154;54.914;73.444;2022-10-16T04:30:22;100675.22;;;12.73;57.69
73824;BME280;62154;54.914;73.444;2022-10-16T04:32:50;100705.34;;;13.02;57.56
73824;BME280;62154;54.914;73.444;2022-10-16T04:35:18;100709.97;;;13.15;56.92
73824;BME280;62154;54.914;73.444;2022-10-16T04:37:46;100680.69;;;13.05;56.08
73824;BME280;62154;54.914;73.444;2022-10-16T04:40:14;100693.06;;;13.10;56.24
73824;BME280;62154;54.914;73.444;2022-10-16T04:42:47;100687.28;;;13.11;55.58
73824;BME280;62154;54.914;73.444;2022-10-16T04:45:19;100652.06;;;12.98;55.95
73824;BME280;62154;54.914;73.444;2022-10-16T04:47:46;100716.13;;;13.42;55.45
73824;BME280;62154;54.914;73.444;2022-10-16T04:50:13;100713.50;;;13.47;55.12
73824;BME280;62154;54.914;73.444;2022-10-16T04:52:40;100664.41;;;13.28;55.13
73824;BME280;62154;54.914;73.444;2022-10-16T04:55:07;100719.38;;;13.58;54.83
73824;BME280;62154;54.914;73.444;2022-10-16T04:57:36;100681.22;;;13.40;54.31
73824;BME280;62154;54.914;73.444;2022-10-16T05:00:09;100700.03;;;13.44;53.80
73824;BME280;62154;54.914;73.444;2022-10-16T05:02:36;100725.81;;;13.58;53.85
73824;BME280;62154;54.914;73.444;2022-10-16T05:05:14;100674.63;;;13.34;54.32
73824;BME280;62154;54.914;73.444;2022-10-16T05:07:42;100675.47;;;13.34;54.59
73824;BME280;62154;54.914;73.444;2022-10-16T05:10:09;100717.06;;;13.54;55.05
73824;BME280;62154;54.914;73.444;2022-10-16T05:12:36;100698.88;;;13.52;54.99
73824;BME280;62154;54.914;73.444;2022-10-16T05:15:03;100701.97;;;13.62;55.05
73824;BME280;62154;54.914;73.444;2022-10-16T05:17:30;100708.09;;;13.71;55.05
73824;BME280;62154;54.914;73.444;2022-10-16T05:19:57;100706.06;;;13.78;54.89
73824;BME280;62154;54.914;73.444;2022-10-16T05:22:24;100671.72;;;13.66;54.76
73824;BME280;62154;54.914;73.444;2022-10-16T05:24:56;100695.91;;;13.84;54.38
73824;BME280;62154;54.914;73.444;2022-10-16T05:27:23;100678.34;;;13.83;54.06
73824;BME280;62154;54.914;73.444;2022-10-16T05:29:50;100697.91;;;13.95;53.92
73824;BME280;62154;54.914;73.444;2022-10-16T05:32:18;100671.84;;;13.71;53.61
73824;BME280;62154;54.914;73.444;2022-10-16T05:34:45;100708.22;;;13.95;53.59
73824;BME280;62154;54.914;73.444;2022-10-16T05:37:12;100675.19;;;13.80;53.84
73824;BME280;62154;54.914;73.444;2022-10-16T05:39:39;100665.94;;;13.79;53.95
73824;BME280;62154;54.914;73.444;2022-10-16T05:42:06;100677.31;;;13.96;53.88
73824;BME280;62154;54.914;73.444;2022-10-16T05:44:33;100675.63;;;14.07;53.82
73824;BME280;62154;54.914;73.444;2022-10-16T05:47:00;100698.06;;;14.31;53.69
73824;BME280;62154;54.914;73.444;2022-10-16T05:49:29;100682.41;;;14.30;53.24
73824;BME280;62154;54.914;73.444;2022-10-16T05:51:56;100704.53;;;14.55;53.09
73824;BME280;62154;54.914;73.444;2022-10-16T05:54:23;100713.91;;;14.61;52.46
73824;BME280;62154;54.914;73.444;2022-10-16T05:56:50;100713.22;;;14.65;52.59
73824;BME280;62154;54.914;73.444;2022-10-16T05:59:17;100701.22;;;14.65;51.89
73824;BME280;62154;54.914;73.444;2022-10-16T06:01:44;100668.50;;;14.42;51.68
73824;BME280;62154;54.914;73.444;2022-10-16T06:04:11;100711.97;;;14.61;51.30
73824;BME280;62154;54.914;73.444;2022-10-16T06:06:38;100683.28;;;14.42;51.19
73824;BME280;62154;54.914;73.444;2022-10-16T06:09:05;100699.59;;;14.57;51.55
73824;BME280;62154;54.914;73.444;2022-10-16T06:11:36;100700.53;;;14.51;51.46
73824;BME280;62154;54.914;73.444;2022-10-16T06:14:03;100671.50;;;14.40;51.16
73824;BME280;62154;54.914;73.444;2022-10-16T06:16:36;100670.91;;;14.38;51.54
73824;BME280;62154;54.914;73.444;2022-10-16T06:19:14;100702.25;;;14.64;51.65
73824;BME280;62154;54.914;73.444;2022-10-16T06:21:42;100701.47;;;14.75;51.46
73824;BME280;62154;54.914;73.444;2022-10-16T06:24:09;100668.66;;;14.59;50.87
73824;BME280;62154;54.914;73.444;2022-10-16T06:26:37;100700.63;;;14.75;50.44
73824;BME280;62154;54.914;73.444;2022-10-16T06:29:04;100691.50;;;14.79;50.28
73824;BME280;62154;54.914;73.444;2022-10-16T06:31:31;100690.44;;;14.80;50.15
73824;BME280;62154;54.914;73.444;2022-10-16T06:34:00;100689.09;;;14.83;50.23
73824;BME280;62154;54.914;73.444;2022-10-16T06:36:27;100642.81;;;14.63;50.14
73824;BME280;62154;54.914;73.444;2022-10-16T06:38:54;100685.34;;;14.89;50.06
73824;BME280;62154;54.914;73.444;2022-10-16T06:41:24;100682.06;;;14.92;50.26
73824;BME280;62154;54.914;73.444;2022-10-16T06:43:51;100661.78;;;14.85;50.19
73824;BME280;62154;54.914;73.444;2022-10-16T06:46:21;100676.13;;;15.00;50.07
73824;BME280;62154;54.914;73.444;2022-10-16T06:48:49;100678.19;;;15.05;50.09
73824;BME280;62154;54.914;73.444;2022-10-16T06:51:18;100671.03;;;15.09;50.24
73824;BME280;62154;54.914;73.444;2022-10-16T06:53:51;100635.81;;;14.96;50.18
73824;BME280;62154;54.914;73.444;2022-10-16T06:56:19;100671.63;;;15.23;49.60
73824;BME280;62154;54.914;73.444;2022-10-16T06:58:47;100668.94;;;15.28;50.25
73824;BME280;62154;54.914;73.444;2022-10-16T07:01:22;100665.06;;;15.29;50.38
73824;BME280;62154;54.914;73.444;2022-10-16T07:03:52;100639.78;;;15.12;50.93
73824;BME280;62154;54.914;73.444;2022-10-16T07:06:21;100635.09;;;15.13;50.67
73824;BME280;62154;54.914;73.444;2022-10-16T07:08:49;100629.50;;;15.13;51.13
73824;BME280;62154;54.914;73.444;2022-10-16T07:11:21;100623.78;;;15.08;51.40
73824;BME280;62154;54.914;73.444;2022-10-16T07:13:49;100620.13;;;15.07;51.76
73824;BME280;62154;54.914;73.444;2022-10-16T07:16:19;100612.38;;;15.09;52.40
73824;BME280;62154;54.914;73.444;2022-10-16T07:18:47;100638.72;;;15.25;51.60
73824;BME280;62154;54.914;73.444;2022-10-16T07:21:20;100623.88;;;15.25;51.82
73824;BME280;62154;54.914;73.444;2022-10-16T07:23:52;100609.44;;;15.28;51.74
73824;BME280;62154;54.914;73.444;2022-10-16T07:26:19;100601.53;;;15.25;51.44
73824;BME280;62154;54.914;73.444;2022-10-16T07:28:47;100628.22;;;15.44;51.44
73824;BME280;62154;54.914;73.444;2022-10-16T07:31:20;100627.34;;;15.44;51.33
73824;BME280;62154;54.914;73.444;2022-10-16T07:33:48;100616.22;;;15.32;51.21
73824;BME280;62154;54.914;73.444;2022-10-16T07:36:17;100598.25;;;15.28;51.42
73824;BME280;62154;54.914;73.444;2022-10-16T07:38:45;100624.94;;;15.47;51.86
73824;BME280;62154;54.914;73.444;2022-10-16T07:41:14;100621.41;;;15.52;51.74
73824;BME280;62154;54.914;73.444;2022-10-16T07:43:45;100584.28;;;15.28;50.95
73824;BME280;62154;54.914;73.444;2022-10-16T07:46:13;100579.91;;;15.32;51.14
73824;BME280;62154;54.914;73.444;2022-10-16T07:48:40;100628.53;;;15.60;51.74
73824;BME280;62154;54.914;73.444;2022-10-16T07:51:13;100540.84;;;15.08;51.85
73824;BME280;62154;54.914;73.444;2022-10-16T07:53:40;100516.69;;;15.02;51.75
73824;BME280;62154;54.914;73.444;2022-10-16T07:56:07;100580.38;;;15.41;51.97
73824;BME280;62154;54.914;73.444;2022-10-16T07:58:35;100617.47;;;15.65;52.23
73824;BME280;62154;54.914;73.444;2022-10-16T08:01:06;100609.91;;;15.65;52.22
73824;BME280;62154;54.914;73.444;2022-10-16T08:03:33;100541.78;;;15.26;52.40
73824;BME280;62154;54.914;73.444;2022-10-16T08:06:03;100574.16;;;15.51;52.63
73824;BME280;62154;54.914;73.444;2022-10-16T08:08:37;100610.28;;;15.69;52.60
73824;BME280;62154;54.914;73.444;2022-10-16T08:11:04;100566.25;;;15.47;52.61
73824;BME280;62154;54.914;73.444;2022-10-16T08:13:31;100566.34;;;15.53;52.69
73824;BME280;62154;54.914;73.444;2022-10-16T08:16:02;100596.19;;;15.64;52.81
73824;BME280;62154;54.914;73.444;2022-10-16T08:18:35;100588.31;;;15.61;53.09
73824;BME280;62154;54.914;73.444;2022-10-16T08:21:03;100599.84;;;15.64;52.96
73824;BME280;62154;54.914;73.444;2022-10-16T08:23:30;100592.06;;;15.66;52.92
73824;BME280;62154;54.914;73.444;2022-10-16T08:26:03;100553.72;;;15.50;52.88
73824;BME280;62154;54.914;73.444;2022-10-16T08:28:31;100578.44;;;15.70;52.88
73824;BME280;62154;54.914;73.444;2022-10-16T08:31:09;100554.69;;;15.56;52.64
73824;BME280;62154;54.914;73.444;2022-10-16T08:33:37;100550.09;;;15.49;52.99
73824;BME280;62154;54.914;73.444;2022-10-16T08:36:05;100571.91;;;15.64;52.76
73824;BME280;62154;54.914;73.444;2022-10-16T08:38:33;100584.38;;;15.74;52.44
73824;BME280;62154;54.914;73.444;2022-10-16T08:41:28;100581.84;;;15.72;52.93
73824;BME280;62154;54.914;73.444;2022-10-16T08:44:23;100570.66;;;15.72;52.77
73824;BME280;62154;54.914;73.444;2022-10-16T08:47:18;100576.25;;;15.72;52.55
73824;BME280;62154;54.914;73.444;2022-10-16T08:49:57;100571.84;;;15.76;52.83
73824;BME280;62154;54.914;73.444;2022-10-16T08:52:32;100568.44;;;15.74;52.71
73824;BME280;62154;54.914;73.444;2022-10-16T08:55:04;100479.13;;;15.22;52.64
73824;BME280;62154;54.914;73.444;2022-10-16T08:57:31;100569.03;;;15.76;52.81
73824;BME280;62154;54.914;73.444;2022-10-16T09:00:12;100533.16;;;15.56;52.41
73824;BME280;62154;54.914;73.444;2022-10-16T09:03:05;100519.44;;;15.55;52.16
73824;BME280;62154;54.914;73.444;2022-10-16T09:05:57;100571.50;;;15.85;52.76
73824;BME280;62154;54.914;73.444;2022-10-16T09:17:22;100560.41;;;15.90;53.41
73824;BME280;62154;54.914;73.444;2022-10-16T09:22:43;100572.19;;;15.80;54.10
73824;BME280;62154;54.914;73.444;2022-10-16T09:25:14;100563.84;;;15.68;54.83
73824;BME280;62154;54.914;73.444;2022-10-16T09:27:44;100523.78;;;15.33;55.15
73824;BME280;62154;54.914;73.444;2022-10-16T09:30:19;100466.47;;;14.90;55.52
73824;BME280;62154;54.914;73.444;2022-10-16T09:32:51;100566.66;;;15.39;56.02
73824;BME280;62154;54.914;73.444;2022-10-16T09:38:02;100513.44;;;14.93;56.25
73824;BME280;62154;54.914;73.444;2022-10-16T09:40:30;100561.59;;;15.12;56.51
73824;BME280;62154;54.914;73.444;2022-10-16T09:43:26;100562.84;;;15.05;57.56
73824;BME280;62154;54.914;73.444;2022-10-16T09:46:08;100523.91;;;14.74;57.58
73824;BME280;62154;54.914;73.444;2022-10-16T09:48:58;100537.50;;;14.82;57.57
73824;BME280;62154;54.914;73.444;2022-10-16T09:51:30;100568.19;;;14.94;57.54
73824;BME280;62154;54.914;73.444;2022-10-16T09:54:22;100554.13;;;14.89;57.89
73824;BME280;62154;54.914;73.444;2022-10-16T09:56:50;100558.25;;;14.87;57.86
73824;BME280;62154;54.914;73.444;2022-10-16T09:59:20;100563.47;;;14.83;58.23
73824;BME280;62154;54.914;73.444;2022-10-16T10:01:52;100559.72;;;14.77;58.80
73824;BME280;62154;54.914;73.444;2022-10-16T10:04:25;100557.28;;;14.69;59.68
73824;BME280;62154;54.914;73.444;2022-10-16T10:06:55;100553.50;;;14.63;60.50
73824;BME280;62154;54.914;73.444;2022-10-16T10:09:25;100555.94;;;14.72;61.03
73824;BME280;62154;54.914;73.444;2022-10-16T10:12:01;100560.69;;;14.71;61.27
73824;BME280;62154;54.914;73.444;2022-10-16T10:14:40;100553.16;;;14.72;61.29
73824;BME280;62154;54.914;73.444;2022-10-16T10:17:28;100516.03;;;14.47;61.82
73824;BME280;62154;54.914;73.444;2022-10-16T10:19:58;100511.41;;;14.41;61.61
73824;BME280;62154;54.914;73.444;2022-10-16T10:22:44;100502.22;;;14.29;61.66
73824;BME280;62154;54.914;73.444;2022-10-16T10:36:40;100548.84;;;14.10;65.09
73824;BME280;62154;54.914;73.444;2022-10-16T10:39:19;100544.97;;;13.99;65.76
73824;BME280;62154;54.914;73.444;2022-10-16T10:42:15;100541.91;;;13.89;66.34
73824;BME280;62154;54.914;73.444;2022-10-16T10:45:03;100544.56;;;13.83;66.76
73824;BME280;62154;54.914;73.444;2022-10-16T10:47:42;100548.88;;;13.79;67.12
73824;BME280;62154;54.914;73.444;2022-10-16T10:58:24;100542.88;;;13.52;67.71
73824;BME280;62154;54.914;73.444;2022-10-16T11:03:42;100541.34;;;13.37;68.33
73824;BME280;62154;54.914;73.444;2022-10-16T11:06:24;100535.59;;;13.32;68.78
73824;BME280;62154;54.914;73.444;2022-10-16T11:09:24;100539.69;;;13.30;69.20
73824;BME280;62154;54.914;73.444;2022-10-16T11:11:58;100551.31;;;13.27;69.41
73824;BME280;62154;54.914;73.444;2022-10-16T11:14:38;100538.09;;;13.22;69.73
73824;BME280;62154;54.914;73.444;2022-10-16T11:17:39;100540.50;;;13.18;70.43
73824;BME280;62154;54.914;73.444;2022-10-16T11:22:54;100538.63;;;13.12;71.52
73824;BME280;62154;54.914;73.444;2022-10-16T11:25:33;100538.03;;;13.10;72.29
73824;BME280;62154;54.914;73.444;2022-10-16T11:28:11;100494.28;;;12.80;72.87
73824;BME280;62154;54.914;73.444;2022-10-16T11:30:53;100529.78;;;13.03;73.08
73824;BME280;62154;54.914;73.444;2022-10-16T11:36:16;100530.84;;;13.02;73.63
73824;BME280;62154;54.914;73.444;2022-10-16T11:41:34;100527.00;;;13.03;74.28
73824;BME280;62154;54.914;73.444;2022-10-16T11:50:06;100520.41;;;12.98;75.49
73824;BME280;62154;54.914;73.444;2022-10-16T11:52:52;100484.31;;;12.72;76.33
73824;BME280;62154;54.914;73.444;2022-10-16T11:55:39;100506.44;;;12.86;76.55
73824;BME280;62154;54.914;73.444;2022-10-16T11:58:28;100513.31;;;12.83;76.94
73824;BME280;62154;54.914;73.444;2022-10-16T12:01:06;100514.00;;;12.79;76.83
73824;BME280;62154;54.914;73.444;2022-10-16T12:08:53;100503.88;;;12.66;77.60
73824;BME280;62154;54.914;73.444;2022-10-16T12:17:00;100482.78;;;12.58;77.92
73824;BME280;62154;54.914;73.444;2022-10-16T12:19:30;100499.38;;;12.65;77.97
73824;BME280;62154;54.914;73.444;2022-10-16T12:22:00;100499.00;;;12.61;78.14
73824;BME280;62154;54.914;73.444;2022-10-16T12:24:38;100504.56;;;12.61;77.97
73824;BME280;62154;54.914;73.444;2022-10-16T12:27:28;100491.38;;;12.56;77.89
73824;BME280;62154;54.914;73.444;2022-10-16T12:30:00;100496.53;;;12.53;77.91
73824;BME280;62154;54.914;73.444;2022-10-16T12:32:37;100492.72;;;12.47;77.98
73824;BME280;62154;54.914;73.444;2022-10-16T12:35:18;100497.84;;;12.50;77.94
73824;BME280;62154;54.914;73.444;2022-10-16T12:37:46;100462.16;;;12.29;78.09
73824;BME280;62154;54.914;73.444;2022-10-16T12:42:44;100485.16;;;12.36;78.52
73824;BME280;62154;54.914;73.444;2022-10-16T12:45:30;100490.47;;;12.37;79.00
73824;BME280;62154;54.914;73.444;2022-10-16T12:48:27;100497.50;;;12.40;79.18
73824;BME280;62154;54.914;73.444;2022-10-16T12:50:55;100493.09;;;12.32;79.53
73824;BME280;62154;54.914;73.444;2022-10-16T12:53:32;100500.66;;;12.25;79.92
73824;BME280;62154;54.914;73.444;2022-10-16T13:13:10;100507.91;;;11.75;82.39
73824;BME280;62154;54.914;73.444;2022-10-16T13:18:33;100511.78;;;11.68;83.20
73824;BME280;62154;54.914;73.444;2022-10-16T13:29:01;100459.72;;;11.24;83.83
73824;BME280;62154;54.914;73.444;2022-10-16T13:31:28;100478.91;;;11.33;84.15
73824;BME280;62154;54.914;73.444;2022-10-16T13:34:00;100492.59;;;11.28;84.67
73824;BME280;62154;54.914;73.444;2022-10-16T13:36:30;100468.81;;;11.06;84.95
73824;BME280;62154;54.914;73.444;2022-10-16T13:39:10;100488.63;;;11.10;85.18
73824;BME280;62154;54.914;73.444;2022-10-16T13:41:38;100499.75;;;11.10;85.23
73824;BME280;62154;54.914;73.444;2022-10-16T13:44:18;100452.91;;;10.82;85.46
73824;BME280;62154;54.914;73.444;2022-10-16T13:47:01;100472.09;;;10.90;85.75
73824;BME280;62154;54.914;73.444;2022-10-16T13:49:28;100487.44;;;10.92;85.95
73824;BME280;62154;54.914;73.444;2022-10-16T13:51:57;100475.34;;;10.73;86.00
73824;BME280;62154;54.914;73.444;2022-10-16T13:54:25;100493.03;;;10.79;86.21
73824;BME280;62154;54.914;73.444;2022-10-16T13:56:53;100458.13;;;10.58;86.29
73824;BME280;62154;54.914;73.444;2022-10-16T13:59:33;100449.44;;;10.48;86.35
73824;BME280;62154;54.914;73.444;2022-10-16T14:02:05;100482.00;;;10.66;86.57
73824;BME280;62154;54.914;73.444;2022-10-16T14:04:38;100462.88;;;10.44;86.53
73824;BME280;62154;54.914;73.444;2022-10-16T14:07:12;100485.00;;;10.57;86.82
73824;BME280;62154;54.914;73.444;2022-10-16T14:09:52;100466.06;;;10.48;86.68
73824;BME280;62154;54.914;73.444;2022-10-16T14:12:19;100436.00;;;10.24;86.99
73824;BME280;62154;54.914;73.444;2022-10-16T14:14:49;100426.66;;;10.19;86.87
73824;BME280;62154;54.914;73.444;2022-10-16T14:17:30;100458.19;;;10.31;87.11
73824;BME280;62154;54.914;73.444;2022-10-16T14:19:59;100434.53;;;10.15;87.22
73824;BME280;62154;54.914;73.444;2022-10-16T14:22:34;100480.97;;;10.40;87.07
73824;BME280;62154;54.914;73.444;2022-10-16T14:25:27;100467.97;;;10.34;87.09
73824;BME280;62154;54.914;73.444;2022-10-16T14:28:13;100474.16;;;10.36;86.83
73824;BME280;62154;54.914;73.444;2022-10-16T14:30:58;100462.44;;;10.27;86.49
73824;BME280;62154;54.914;73.444;2022-10-16T14:36:12;100464.59;;;10.25;86.36
73824;BME280;62154;54.914;73.444;2022-10-16T14:38:42;100457.13;;;10.12;86.01
73824;BME280;62154;54.914;73.444;2022-10-16T14:41:15;100457.56;;;10.16;85.82
73824;BME280;62154;54.914;73.444;2022-10-16T14:43:43;100432.66;;;9.95;85.88
73824;BME280;62154;54.914;73.444;2022-10-16T14:46:20;100451.81;;;10.04;85.87
73824;BME280;62154;54.914;73.444;2022-10-16T14:49:17;100435.22;;;9.90;85.84
73824;BME280;62154;54.914;73.444;2022-10-16T14:51:43;100476.97;;;10.09;85.63
73824;BME280;62154;54.914;73.444;2022-10-16T14:54:15;100470.97;;;10.12;85.75
73824;BME280;62154;54.914;73.444;2022-10-16T14:56:47;100466.53;;;10.11;85.88
73824;BME280;62154;54.914;73.444;2022-10-16T14:59:23;100467.59;;;10.10;85.80
73824;BME280;62154;54.914;73.444;2022-10-16T15:04:47;100460.78;;;10.06;85.95
73824;BME280;62154;54.914;73.444;2022-10-16T15:07:24;100448.84;;;9.99;85.99
73824;BME280;62154;54.914;73.444;2022-10-16T15:09:52;100445.44;;;9.96;86.11
73824;BME280;62154;54.914;73.444;2022-10-16T15:12:19;100419.47;;;9.77;86.00